Time;durP1;ratioP1;P1;durP2;ratioP2;P2;SDS_P1;SDS_P2;PMS_P1;PMS_P2;Temp;Humidity;BMP_temperature;BMP_pressure;BME280_temperature;BME280_humidity;BME280_pressure;Samples;Min_cycle;Max_cycle;Signal;HPM_P1;HPM_P2
2021/12/09 00:00:09;;;;;;;12.93;7.72;;;;;;;-0.56;100.00;100121.22;1035162;28;20464;-76
2021/12/09 00:00:49;;;;;;;21.40;8.10;;;;;;;-0.45;100.00;100122.72;1030535;28;20441;-75
2021/12/09 00:01:27;;;;;;;15.73;8.02;;;;;;;-0.50;100.00;100120.59;1035460;28;20823;-76
2021/12/09 00:01:59;;;;;;;21.60;7.82;;;;;;;-0.52;100.00;100113.91;1031461;28;20499;-75
2021/12/09 00:02:32;;;;;;;13.40;7.28;;;;;;;-0.56;100.00;100125.63;1030343;28;20801;-75
2021/12/09 00:03:07;;;;;;;13.48;7.53;;;;;;;-0.56;100.00;100121.22;1031162;28;20488;-75
2021/12/09 00:03:40;;;;;;;15.27;8.48;;;;;;;-0.59;100.00;100126.78;1031120;28;21039;-76
2021/12/09 00:04:14;;;;;;;16.05;7.90;;;;;;;-0.63;100.00;100126.28;1032638;28;20433;-75
2021/12/09 00:04:47;;;;;;;16.95;8.70;;;;;;;-0.62;100.00;100127.09;1035058;28;20464;-75
2021/12/09 00:05:18;;;;;;;13.27;8.07;;;;;;;-0.66;100.00;100117.94;1031233;28;20445;-76
2021/12/09 00:05:50;;;;;;;13.93;7.65;;;;;;;-0.65;100.00;100119.59;1032229;28;20445;-76
2021/12/09 00:06:26;;;;;;;13.00;8.75;;;;;;;-0.71;100.00;100118.44;1035120;28;20429;-75
2021/12/09 00:06:59;;;;;;;16.58;8.05;;;;;;;-0.73;100.00;100114.34;1034887;28;21020;-75
2021/12/09 00:07:31;;;;;;;11.13;7.95;;;;;;;-0.70;100.00;100124.47;1035291;28;20456;-76
2021/12/09 00:08:05;;;;;;;15.95;8.55;;;;;;;-0.62;100.00;100119.25;1035385;28;20452;-76
2021/12/09 00:08:37;;;;;;;16.48;7.85;;;;;;;-0.54;100.00;100114.06;1038363;28;20467;-75
2021/12/09 00:09:14;;;;;;;16.73;8.57;;;;;;;-0.58;100.00;100123.19;1035272;28;20548;-75
2021/12/09 00:09:45;;;;;;;15.85;8.13;;;;;;;-0.60;100.00;100116.47;1031448;28;20452;-76
2021/12/09 00:10:19;;;;;;;16.55;8.32;;;;;;;-0.59;100.00;100121.53;1026794;28;20488;-75
2021/12/09 00:10:50;;;;;;;15.65;7.63;;;;;;;-0.54;100.00;100123.69;1024399;28;20459;-76
2021/12/09 00:11:22;;;;;;;12.70;7.93;;;;;;;-0.59;100.00;100126.78;1023170;28;20837;-76
2021/12/09 00:11:54;;;;;;;16.40;9.02;;;;;;;-0.62;100.00;100114.84;1017916;29;20818;-76
2021/12/09 00:12:27;;;;;;;16.83;8.20;;;;;;;-0.64;100.00;100121.22;1026814;28;20466;-75
2021/12/09 00:12:59;;;;;;;12.00;7.65;;;;;;;-0.53;100.00;100120.09;1032114;28;20485;-77
2021/12/09 00:13:30;;;;;;;17.40;8.77;;;;;;;-0.50;100.00;100123.22;1036780;28;20437;-77
2021/12/09 00:14:02;;;;;;;15.30;7.97;;;;;;;-0.57;100.00;100119.59;1039073;28;20478;-77
2021/12/09 00:14:34;;;;;;;15.57;7.57;;;;;;;-0.51;100.00;100121.56;1039118;28;21146;-77
2021/12/09 00:15:06;;;;;;;15.77;8.55;;;;;;;-0.53;100.00;100118.31;1039534;28;20965;-76
2021/12/09 00:15:38;;;;;;;16.35;7.93;;;;;;;-0.48;100.00;100113.41;1035119;28;20455;-75
2021/12/09 00:16:09;;;;;;;10.40;7.93;;;;;;;-0.49;100.00;100117.00;1030656;28;20469;-75
2021/12/09 00:16:41;;;;;;;16.15;8.38;;;;;;;-0.46;100.00;100114.06;1031426;28;20441;-76
2021/12/09 00:17:13;;;;;;;16.88;7.45;;;;;;;-0.42;100.00;100117.97;1033971;28;20479;-76
2021/12/09 00:17:44;;;;;;;13.57;8.07;;;;;;;-0.42;100.00;100112.75;1035397;28;20461;-76
2021/12/09 00:18:17;;;;;;;15.38;8.63;;;;;;;-0.39;100.00;100119.44;1039540;28;20479;-75
2021/12/09 00:18:48;;;;;;;13.82;8.27;;;;;;;-0.37;100.00;100115.69;1035037;28;21053;-75
2021/12/09 00:19:20;;;;;;;13.00;7.80;;;;;;;-0.40;100.00;100116.00;1035125;28;20463;-75
2021/12/09 00:19:52;;;;;;;12.55;7.63;;;;;;;-0.38;100.00;100119.28;1027234;28;20473;-76
2021/12/09 00:20:23;;;;;;;16.90;9.32;;;;;;;-0.43;100.00;100121.56;1022910;28;20465;-75
2021/12/09 00:20:55;;;;;;;16.40;8.15;;;;;;;-0.41;100.00;100113.56;1023803;28;20794;-76
2021/12/09 00:21:26;;;;;;;17.88;7.93;;;;;;;-0.45;100.00;100118.31;1027816;28;20462;-76
2021/12/09 00:21:59;;;;;;;17.30;8.43;;;;;;;-0.48;100.00;100110.78;1035077;28;20973;-76
2021/12/09 00:22:33;;;;;;;14.45;8.27;;;;;;;-0.50;100.00;100110.13;1035806;28;20464;-76
2021/12/09 00:23:05;;;;;;;14.48;8.15;;;;;;;-0.45;100.00;100115.69;1036001;28;20468;-76
2021/12/09 00:23:36;;;;;;;16.17;7.80;;;;;;;-0.47;100.00;100122.88;1034983;28;21064;-76
2021/12/09 00:24:09;;;;;;;17.88;8.70;;;;;;;-0.46;100.00;100116.66;1035073;28;20456;-76
2021/12/09 00:24:40;;;;;;;20.10;8.27;;;;;;;-0.43;100.00;100120.75;1035340;28;20464;-76
2021/12/09 00:25:13;;;;;;;10.93;7.72;;;;;;;-0.48;100.00;100110.78;1034928;28;20476;-76
2021/12/09 00:25:45;;;;;;;12.82;8.02;;;;;;;-0.50;100.00;100115.38;1031075;28;20484;-76
2021/12/09 00:26:17;;;;;;;12.70;8.30;;;;;;;-0.48;100.00;100113.41;1031715;28;20464;-76
2021/12/09 00:26:49;;;;;;;10.85;7.45;;;;;;;-0.47;100.00;100120.25;1030861;28;20449;-76
2021/12/09 00:27:20;;;;;;;16.25;8.18;;;;;;;-0.51;100.00;100118.97;1031104;28;20573;-76
2021/12/09 00:27:52;;;;;;;14.25;7.60;;;;;;;-0.45;100.00;100117.50;1033035;28;20457;-76
2021/12/09 00:28:23;;;;;;;10.48;8.50;;;;;;;-0.52;100.00;100117.31;1031415;28;20466;-76
2021/12/09 00:28:55;;;;;;;15.30;7.88;;;;;;;-0.52;100.00;100117.31;1035445;28;20487;-76
2021/12/09 00:29:27;;;;;;;17.75;8.05;;;;;;;-0.54;100.00;100119.28;1039411;28;20444;-76
2021/12/09 00:29:58;;;;;;;12.25;8.05;;;;;;;-0.54;100.00;100124.53;1035709;28;20461;-75
2021/12/09 00:30:31;;;;;;;19.80;9.20;;;;;;;-0.57;100.00;100124.81;1038550;28;20460;-76
2021/12/09 00:31:02;;;;;;;15.68;9.15;;;;;;;-0.55;100.00;100122.84;1035399;28;20527;-75
2021/12/09 00:31:34;;;;;;;17.13;8.90;;;;;;;-0.59;100.00;100121.53;1034888;28;21009;-76
2021/12/09 00:32:06;;;;;;;15.57;7.68;;;;;;;-0.59;100.00;100123.34;1034984;28;20464;-75
2021/12/09 00:32:39;;;;;;;15.23;7.90;;;;;;;-0.65;100.00;100116.97;1034145;28;20475;-76
2021/12/09 00:33:11;;;;;;;15.85;7.88;;;;;;;-0.62;100.00;100121.88;1030623;28;20469;-76
2021/12/09 00:33:45;;;;;;;12.60;8.35;;;;;;;-0.56;100.00;100121.22;1031640;28;20458;-76
2021/12/09 00:34:19;;;;;;;32.33;9.95;;;;;;;-0.57;100.00;100124.81;1035397;28;20472;-75
2021/12/09 00:34:51;;;;;;;13.95;7.63;;;;;;;-0.58;100.00;100123.19;1031169;28;20789;-75
2021/12/09 00:35:29;;;;;;;17.63;7.68;;;;;;;-0.58;100.00;100122.34;1034605;28;20467;-76
2021/12/09 00:36:01;;;;;;;19.63;8.27;;;;;;;-0.64;100.00;100121.22;1034931;28;20449;-75
2021/12/09 00:36:54;;;;;;;12.93;9.27;;;;;;;-0.60;100.00;100119.09;1035042;28;20464;-75
2021/12/09 00:38:01;;;;;;;11.75;7.63;;;;;;;-0.66;100.00;100123.19;1030950;28;20461;-75
2021/12/09 00:38:35;;;;;;;14.65;7.97;;;;;;;-0.66;100.00;100118.75;1026787;28;20450;-76
2021/12/09 00:39:09;;;;;;;22.48;8.15;;;;;;;-0.66;100.00;100126.59;1030337;28;20480;-76
2021/12/09 00:39:42;;;;;;;12.55;8.10;;;;;;;-0.63;100.00;100130.69;1029164;28;20454;-75
2021/12/09 00:40:13;;;;;;;17.33;9.02;;;;;;;-0.55;100.00;100133.31;1028984;28;20462;-75
2021/12/09 00:40:45;;;;;;;20.35;8.32;;;;;;;-0.56;100.00;100126.44;1030980;28;20823;-76
2021/12/09 00:41:16;;;;;;;19.65;9.15;;;;;;;-0.58;100.00;100127.59;1031509;28;20468;-75
2021/12/09 00:41:48;;;;;;;19.85;8.70;;;;;;;-0.58;100.00;100131.03;1035504;28;20479;-75
2021/12/09 00:42:24;;;;;;;22.83;8.68;;;;;;;-0.57;100.00;100126.63;1035105;28;20820;-75
2021/12/09 00:42:55;;;;;;;16.55;8.68;;;;;;;-0.52;100.00;100125.16;1035119;28;20468;-75
2021/12/09 00:43:27;;;;;;;16.10;8.70;;;;;;;-0.60;100.00;100133.00;1035121;28;20815;-75
2021/12/09 00:43:58;;;;;;;20.00;8.10;;;;;;;-0.60;100.00;100135.59;1034925;28;20536;-76
2021/12/09 00:44:30;;;;;;;16.50;9.10;;;;;;;-0.57;100.00;100126.63;1029697;28;20770;-75
2021/12/09 00:45:03;;;;;;;25.13;9.20;;;;;;;-0.63;100.00;100135.94;1031377;28;20560;-75
2021/12/09 00:45:35;;;;;;;15.10;8.90;;;;;;;-0.62;100.00;100133.16;1030933;28;20465;-75
2021/12/09 00:46:07;;;;;;;16.35;8.18;;;;;;;-0.58;100.00;100131.03;1026031;28;20679;-75
2021/12/09 00:46:39;;;;;;;13.07;7.93;;;;;;;-0.63;100.00;100134.13;1031129;28;20457;-75
2021/12/09 00:47:11;;;;;;;17.45;8.80;;;;;;;-0.61;100.00;100133.97;1031268;28;20473;-76
2021/12/09 00:47:42;;;;;;;19.20;11.43;;;;;;;-0.60;100.00;100133.00;1034411;28;20460;-75
2021/12/09 00:48:14;;;;;;;17.08;8.93;;;;;;;-0.64;100.00;100131.69;1039316;28;20470;-75
2021/12/09 00:48:46;;;;;;;17.00;8.77;;;;;;;-0.64;100.00;100131.69;1039082;28;20444;-76
2021/12/09 00:49:18;;;;;;;12.80;8.15;;;;;;;-0.64;100.00;100135.09;1039289;28;20472;-75
2021/12/09 00:49:50;;;;;;;16.77;9.82;;;;;;;-0.64;100.00;100129.88;1040019;28;20455;-76
2021/12/09 00:50:22;;;;;;;17.85;8.82;;;;;;;-0.65;100.00;100128.25;1031288;28;20480;-77
2021/12/09 00:50:55;;;;;;;17.15;9.45;;;;;;;-0.59;100.00;100125.97;1027066;28;20802;-77
2021/12/09 00:51:27;;;;;;;16.98;9.45;;;;;;;-0.61;100.00;100133.97;1031494;28;20448;-78
2021/12/09 00:51:58;;;;;;;14.90;9.45;;;;;;;-0.63;100.00;100136.75;1032738;28;21003;-77
2021/12/09 00:52:35;;;;;;;16.48;8.93;;;;;;;-0.63;100.00;100122.84;1036896;28;20456;-75
2021/12/09 00:53:06;;;;;;;17.33;9.05;;;;;;;-0.56;100.00;100134.28;1035638;28;20441;-75
2021/12/09 00:53:38;;;;;;;21.83;9.20;;;;;;;-0.59;100.00;100126.78;1035983;28;20447;-77
2021/12/09 00:54:10;;;;;;;19.60;9.60;;;;;;;-0.55;100.00;100130.69;1030633;28;20466;-77
2021/12/09 00:54:42;;;;;;;17.85;9.88;;;;;;;-0.53;100.00;100130.56;1030836;28;20469;-77
2021/12/09 00:55:15;;;;;;;14.60;9.00;;;;;;;-0.55;100.00;100127.25;1027982;28;20457;-77
2021/12/09 00:55:54;;;;;;;16.10;9.77;;;;;;;-0.52;100.00;100130.41;1031226;28;20695;-75
2021/12/09 00:56:26;;;;;;;20.13;9.52;;;;;;;-0.54;100.00;100128.94;1032335;28;20450;-75
2021/12/09 00:56:57;;;;;;;18.17;9.55;;;;;;;-0.57;100.00;100131.84;1031997;28;20541;-76
2021/12/09 00:57:29;;;;;;;13.82;9.57;;;;;;;-0.55;100.00;100138.53;1031118;28;20471;-76
2021/12/09 00:58:01;;;;;;;16.50;9.38;;;;;;;-0.48;100.00;100136.94;1026639;28;20481;-75
2021/12/09 00:58:33;;;;;;;17.02;9.98;;;;;;;-0.49;100.00;100137.91;1026150;28;20480;-75
2021/12/09 00:59:05;;;;;;;15.50;9.90;;;;;;;-0.53;100.00;100135.78;1031116;28;20517;-75
2021/12/09 00:59:36;;;;;;;17.85;10.02;;;;;;;-0.55;100.00;100142.97;1031078;28;20537;-75
2021/12/09 01:00:16;;;;;;;18.13;10.60;;;;;;;-0.53;100.00;100141.84;1031458;28;20982;-75
2021/12/09 01:00:48;;;;;;;20.38;8.90;;;;;;;-0.55;100.00;100138.53;1034891;28;21033;-76
2021/12/09 01:01:19;;;;;;;14.73;8.85;;;;;;;-0.52;100.00;100143.47;1031343;28;20437;-75
2021/12/09 01:01:53;;;;;;;12.85;9.23;;;;;;;-0.56;100.00;100142.16;1031094;28;20449;-76
2021/12/09 01:02:25;;;;;;;18.25;11.10;;;;;;;-0.56;100.00;100144.75;1023573;28;20450;-75
2021/12/09 01:02:58;;;;;;;23.75;8.85;;;;;;;-0.56;100.00;100136.91;1027772;28;21022;-76
2021/12/09 01:03:30;;;;;;;15.30;9.48;;;;;;;-0.55;100.00;100141.16;1023302;28;20445;-76
2021/12/09 01:04:01;;;;;;;15.07;9.82;;;;;;;-0.57;100.00;100137.88;1023544;28;20821;-76
2021/12/09 01:04:33;;;;;;;18.35;10.27;;;;;;;-0.57;100.00;100135.28;1030389;28;20633;-76
2021/12/09 01:05:06;;;;;;;27.58;9.88;;;;;;;-0.55;100.00;100142.97;1034138;28;20437;-75
2021/12/09 01:05:37;;;;;;;16.17;10.23;;;;;;;-0.53;100.00;100147.06;1034750;28;20899;-75
2021/12/09 01:06:10;;;;;;;20.48;10.35;;;;;;;-0.60;100.00;100140.00;1026785;28;20584;-75
2021/12/09 01:06:44;;;;;;;14.80;9.60;;;;;;;-0.55;100.00;100149.00;1022868;28;20996;-76
2021/12/09 01:07:16;;;;;;;12.27;9.30;;;;;;;-0.54;100.00;100142.81;1023843;28;20467;-76
2021/12/09 01:07:47;;;;;;;13.15;9.27;;;;;;;-0.50;100.00;100146.75;1028563;28;20466;-75
2021/12/09 01:08:19;;;;;;;17.08;9.82;;;;;;;-0.44;100.00;100146.09;1034932;28;20475;-75
2021/12/09 01:08:50;;;;;;;16.00;10.00;;;;;;;-0.48;100.00;100142.19;1034906;28;20444;-76
2021/12/09 01:09:21;;;;;;;15.73;10.07;;;;;;;-0.48;100.00;100146.59;1030817;28;20813;-75
2021/12/09 01:09:53;;;;;;;25.48;9.90;;;;;;;-0.44;100.00;100146.09;1027078;28;20454;-75
2021/12/09 01:10:25;;;;;;;12.90;9.02;;;;;;;-0.45;100.00;100139.22;1026940;28;20469;-75
2021/12/09 01:10:56;;;;;;;17.30;11.18;;;;;;;-0.47;100.00;100149.03;1023905;28;20449;-76
2021/12/09 01:11:28;;;;;;;19.92;11.70;;;;;;;-0.49;100.00;100148.38;1027313;28;21538;-76
2021/12/09 01:12:00;;;;;;;14.15;9.32;;;;;;;-0.40;100.00;100142.16;1031133;28;20453;-75
2021/12/09 01:12:32;;;;;;;17.30;10.70;;;;;;;-0.44;100.00;100140.88;1027130;28;20453;-76
2021/12/09 01:13:03;;;;;;;16.05;9.88;;;;;;;-0.45;100.00;100144.47;1031606;28;20989;-75
2021/12/09 01:13:35;;;;;;;21.02;10.88;;;;;;;-0.42;100.00;100146.75;1030956;28;20476;-75
2021/12/09 01:14:07;;;;;;;17.25;10.13;;;;;;;-0.35;100.00;100145.13;1031530;28;20452;-76
2021/12/09 01:14:39;;;;;;;17.88;9.38;;;;;;;-0.38;100.00;100142.81;1030993;28;20453;-75
2021/12/09 01:15:12;;;;;;;17.70;10.30;;;;;;;-0.35;100.00;100139.88;1035810;28;20454;-75
2021/12/09 01:15:43;;;;;;;16.95;10.10;;;;;;;-0.32;100.00;100142.16;1034859;28;20452;-75
2021/12/09 01:16:15;;;;;;;16.52;10.25;;;;;;;-0.32;100.00;100139.56;1028848;28;20493;-76
2021/12/09 01:16:46;;;;;;;20.52;10.30;;;;;;;-0.31;100.00;100135.13;1035299;28;20806;-76
2021/12/09 01:17:18;;;;;;;22.05;9.65;;;;;;;-0.31;100.00;100141.19;1035110;28;20484;-75
2021/12/09 01:17:52;;;;;;;20.73;10.25;;;;;;;-0.28;100.00;100142.66;1035222;28;20795;-76
2021/12/09 01:18:26;;;;;;;17.13;10.20;;;;;;;-0.25;100.00;100144.16;1035368;28;20476;-74
2021/12/09 01:18:58;;;;;;;18.15;11.20;;;;;;;-0.35;100.00;100139.88;1034957;28;20432;-75
2021/12/09 01:19:30;;;;;;;28.40;11.48;;;;;;;-0.28;100.00;100139.22;1034890;28;20475;-75
2021/12/09 01:20:03;;;;;;;16.75;10.75;;;;;;;-0.34;100.00;100141.50;1034967;28;20469;-75
2021/12/09 01:20:35;;;;;;;19.00;10.13;;;;;;;-0.36;100.00;100148.72;1033857;28;20966;-75
2021/12/09 01:21:07;;;;;;;17.70;10.38;;;;;;;-0.39;100.00;100143.00;1030728;28;20991;-76
2021/12/09 01:21:38;;;;;;;30.95;11.00;;;;;;;-0.38;100.00;100140.22;1026678;28;20450;-75
2021/12/09 01:22:10;;;;;;;18.95;10.73;;;;;;;-0.41;100.00;100145.78;1027452;28;20466;-75
2021/12/09 01:22:43;;;;;;;16.58;10.20;;;;;;;-0.42;100.00;100149.38;1031199;28;20449;-77
2021/12/09 01:23:15;;;;;;;12.93;10.18;;;;;;;-0.41;100.00;100140.53;1031838;28;20477;-77
2021/12/09 01:23:46;;;;;;;24.52;10.60;;;;;;;-0.46;100.00;100142.00;1037438;28;20457;-77
2021/12/09 01:24:18;;;;;;;19.73;10.25;;;;;;;-0.48;100.00;100143.97;1039985;28;20471;-75
2021/12/09 01:24:49;;;;;;;18.67;10.10;;;;;;;-0.46;100.00;100147.25;1034709;28;20656;-76
2021/12/09 01:25:22;;;;;;;17.95;10.43;;;;;;;-0.46;100.00;100147.25;1031179;28;20464;-76
2021/12/09 01:26:02;;;;;;;19.90;10.60;;;;;;;-0.47;100.00;100146.44;1027202;28;21031;-76
2021/12/09 01:26:34;;;;;;;23.25;9.63;;;;;;;-0.51;100.00;100145.13;1026195;28;20489;-75
2021/12/09 01:27:06;;;;;;;18.02;9.43;;;;;;;-0.52;100.00;100140.88;1032305;28;20487;-76
2021/12/09 01:27:41;;;;;;;22.05;9.68;;;;;;;-0.57;100.00;100145.75;1033659;28;20974;-76
2021/12/09 01:28:20;;;;;;;16.58;9.95;;;;;;;-0.58;100.00;100143.28;1025790;28;20477;-77
2021/12/09 01:28:57;;;;;;;12.88;8.77;;;;;;;-0.59;100.00;100152.13;1025107;28;20434;-77
2021/12/09 01:29:36;;;;;;;15.90;9.50;;;;;;;-0.61;100.00;100141.81;1028705;28;20449;-78
2021/12/09 01:30:13;;;;;;;17.90;9.15;;;;;;;-0.75;100.00;100147.69;1030896;28;20824;-78
2021/12/09 01:30:47;;;;;;;13.65;9.55;;;;;;;-0.76;100.00;100148.66;1033873;28;20467;-77
2021/12/09 01:31:24;;;;;;;17.17;9.10;;;;;;;-0.78;100.00;100148.00;1030993;28;20449;-75
2021/12/09 01:32:01;;;;;;;13.15;8.68;;;;;;;-0.79;100.00;100144.56;1030595;28;20461;-75
2021/12/09 01:32:32;;;;;;;18.70;10.50;;;;;;;-0.73;100.00;100146.53;1028777;28;21006;-76
2021/12/09 01:33:06;;;;;;;11.90;9.15;;;;;;;-0.75;100.00;100155.53;1032762;28;20463;-75
2021/12/09 01:33:37;;;;;;;15.25;9.27;;;;;;;-0.81;100.00;100153.56;1035012;28;20463;-75
2021/12/09 01:34:09;;;;;;;18.92;10.02;;;;;;;-0.83;100.00;100151.06;1034514;28;20469;-75
2021/12/09 01:34:41;;;;;;;18.33;10.10;;;;;;;-0.86;100.00;100150.56;1035208;28;20444;-75
2021/12/09 01:35:12;;;;;;;17.05;9.25;;;;;;;-0.87;100.00;100147.16;1035521;28;20445;-75
2021/12/09 01:35:47;;;;;;;14.45;9.13;;;;;;;-0.87;100.00;100148.94;1035100;28;20471;-75
2021/12/09 01:36:20;;;;;;;26.33;9.73;;;;;;;-0.82;100.00;100147.50;1034638;28;20472;-75
2021/12/09 01:36:52;;;;;;;19.95;10.90;;;;;;;-0.75;100.00;100151.13;1030950;28;20509;-75
2021/12/09 01:37:23;;;;;;;20.25;10.20;;;;;;;-0.75;100.00;100145.88;1027072;28;20442;-76
2021/12/09 01:37:58;;;;;;;15.88;10.30;;;;;;;-0.76;100.00;100146.06;1027499;28;20470;-75
2021/12/09 01:38:32;;;;;;;14.73;9.13;;;;;;;-0.71;100.00;100149.81;1027566;28;20445;-75
2021/12/09 01:39:05;;;;;;;16.73;10.05;;;;;;;-0.73;100.00;100156.19;1028054;28;20608;-75
2021/12/09 01:39:37;;;;;;;14.38;9.55;;;;;;;-0.71;100.00;100143.78;1028300;28;20441;-77
2021/12/09 01:40:12;;;;;;;15.90;10.10;;;;;;;-0.73;100.00;100151.78;1028130;28;20466;-77
2021/12/09 01:40:45;;;;;;;19.15;9.98;;;;;;;-0.80;100.00;100144.75;1027829;28;20477;-77
2021/12/09 01:41:16;;;;;;;14.02;9.63;;;;;;;-0.81;100.00;100138.69;1028757;28;20468;-76
2021/12/09 01:41:48;;;;;;;18.75;10.32;;;;;;;-0.81;100.00;100140.50;1030764;28;20445;-77
2021/12/09 01:42:20;;;;;;;21.38;10.65;;;;;;;-0.72;100.00;100142.13;1027380;28;20461;-77
2021/12/09 01:42:52;;;;;;;24.92;13.27;;;;;;;-0.77;100.00;100139.19;1031050;28;20448;-77
2021/12/09 01:43:24;;;;;;;14.38;9.82;;;;;;;-0.76;100.00;100146.88;1031093;28;20465;-77
2021/12/09 01:43:55;;;;;;;22.13;11.05;;;;;;;-0.65;100.00;100146.56;1031363;28;21796;-77
2021/12/09 01:44:27;;;;;;;14.75;10.52;;;;;;;-0.65;100.00;100146.56;1031144;28;20449;-77
2021/12/09 01:44:58;;;;;;;19.65;10.48;;;;;;;-0.73;100.00;100148.34;1027293;28;20469;-77
2021/12/09 01:45:30;;;;;;;16.42;10.27;;;;;;;-0.78;100.00;100145.41;1031582;28;20457;-77
2021/12/09 01:46:08;;;;;;;14.93;10.32;;;;;;;-0.78;100.00;100142.78;1031521;28;20481;-77
2021/12/09 01:46:40;;;;;;;14.93;8.98;;;;;;;-0.70;100.00;100153.25;1035628;28;21048;-77
2021/12/09 01:47:11;;;;;;;18.42;11.30;;;;;;;-0.62;100.00;100145.41;1040475;28;20584;-77
2021/12/09 01:47:43;;;;;;;20.52;10.55;;;;;;;-0.64;100.00;100149.97;1039218;28;20471;-78
2021/12/09 01:48:16;;;;;;;21.95;11.05;;;;;;;-0.68;100.00;100148.69;1035029;28;20484;-77
2021/12/09 01:48:50;;;;;;;18.13;10.57;;;;;;;-0.71;100.00;100151.63;1033399;28;20459;-78
2021/12/09 01:49:22;;;;;;;14.55;9.80;;;;;;;-0.71;100.00;100149.00;1031871;28;20437;-76
2021/12/09 01:49:54;;;;;;;15.43;10.75;;;;;;;-0.75;100.00;100152.91;1035697;28;20468;-77
2021/12/09 01:50:26;;;;;;;13.65;9.32;;;;;;;-0.76;100.00;100153.91;1036178;28;20444;-77
2021/12/09 01:50:58;;;;;;;23.83;10.25;;;;;;;-0.78;100.00;100148.00;1036452;28;20436;-77
2021/12/09 01:51:30;;;;;;;17.08;10.55;;;;;;;-0.82;100.00;100152.75;1035886;28;20503;-77
2021/12/09 01:52:02;;;;;;;12.93;9.23;;;;;;;-0.82;100.00;100151.88;1040248;28;20460;-77
2021/12/09 01:52:34;;;;;;;19.00;11.50;;;;;;;-0.85;100.00;100152.22;1034366;28;20455;-77
2021/12/09 01:53:07;;;;;;;15.85;10.00;;;;;;;-0.83;100.00;100158.91;1033959;28;20461;-77
2021/12/09 01:53:39;;;;;;;19.48;10.93;;;;;;;-0.66;100.00;100151.94;1035923;28;20484;-77
2021/12/09 01:54:11;;;;;;;20.05;10.88;;;;;;;-0.76;100.00;100156.50;1035331;28;20473;-77
2021/12/09 01:54:43;;;;;;;18.80;10.82;;;;;;;-0.71;100.00;100160.28;1036530;28;20440;-77
2021/12/09 01:55:16;;;;;;;18.45;10.30;;;;;;;-0.71;100.00;100159.47;1028127;28;21002;-78
2021/12/09 01:55:47;;;;;;;16.42;10.00;;;;;;;-0.75;100.00;100147.69;1028252;28;20473;-77
2021/12/09 01:56:22;;;;;;;15.75;10.80;;;;;;;-0.77;100.00;100160.09;1031129;28;20803;-77
2021/12/09 01:56:54;;;;;;;22.08;11.48;;;;;;;-0.82;100.00;100155.34;1029131;28;20468;-77
2021/12/09 01:57:25;;;;;;;19.42;11.18;;;;;;;-0.80;100.00;100157.81;1038189;28;20526;-77
2021/12/09 01:57:57;;;;;;;14.57;10.55;;;;;;;-0.81;100.00;100164.03;1038304;28;20826;-77
2021/12/09 01:58:38;;;;;;;20.88;10.98;;;;;;;-0.85;100.00;100155.66;1032129;28;20471;-77
2021/12/09 01:59:10;;;;;;;14.38;10.65;;;;;;;-0.94;100.00;100154.81;1033968;28;20476;-77
2021/12/09 01:59:42;;;;;;;14.00;10.93;;;;;;;-0.88;100.00;100155.16;1032475;28;20484;-77
2021/12/09 02:00:17;;;;;;;15.00;10.15;;;;;;;-0.86;100.00;100155.81;1034693;28;20484;-77
2021/12/09 02:00:49;;;;;;;20.13;10.80;;;;;;;-0.88;100.00;100152.53;1032623;28;20946;-78
2021/12/09 02:01:21;;;;;;;16.63;10.40;;;;;;;-0.90;100.00;100146.66;1029173;28;20470;-77
2021/12/09 02:01:53;;;;;;;23.63;10.90;;;;;;;-0.87;100.00;100154.19;1028700;28;20549;-78
2021/12/09 02:02:25;;;;;;;20.77;10.25;;;;;;;-0.84;100.00;100154.66;1034704;28;20500;-78
2021/12/09 02:03:06;;;;;;;;;;;;;;;-0.91;100.00;100147.63;1037140;28;20793;-77
2021/12/09 02:03:38;;;;;;;12.00;9.30;;;;;;;-0.86;100.00;100145.34;1038573;28;19921;-77
2021/12/09 02:04:11;;;;;;;15.57;9.63;;;;;;;-0.80;100.00;100156.00;1036291;28;20548;-76
2021/12/09 02:04:43;;;;;;;17.38;10.30;;;;;;;-0.82;100.00;100141.44;1032836;28;20445;-77
2021/12/09 02:05:15;;;;;;;18.60;10.75;;;;;;;-0.86;100.00;100145.34;1032961;28;21034;-77
2021/12/09 02:05:47;;;;;;;16.55;10.30;;;;;;;-0.89;100.00;100143.06;1032810;28;20449;-77
2021/12/09 02:06:20;;;;;;;19.92;10.90;;;;;;;-0.90;100.00;100150.09;1029206;28;20473;-77
2021/12/09 02:06:52;;;;;;;21.17;10.93;;;;;;;-0.93;100.00;100143.38;1028217;28;20473;-77
2021/12/09 02:07:23;;;;;;;15.88;10.45;;;;;;;-0.91;100.00;100148.44;1029973;28;20450;-77
2021/12/09 02:07:55;;;;;;;16.58;10.30;;;;;;;-0.88;100.00;100148.13;1037648;28;20449;-77
2021/12/09 02:08:27;;;;;;;14.57;10.40;;;;;;;-0.84;100.00;100146.00;1040882;28;20450;-78
2021/12/09 02:08:59;;;;;;;22.88;10.23;;;;;;;-0.89;100.00;100145.66;1039186;28;20486;-77
2021/12/09 02:09:31;;;;;;;17.45;10.20;;;;;;;-0.86;100.00;100140.13;1035971;28;20824;-77
2021/12/09 02:10:08;;;;;;;19.45;10.85;;;;;;;-0.85;100.00;100142.56;1036381;28;21037;-77
2021/12/09 02:10:40;;;;;;;17.10;9.65;;;;;;;-0.83;100.00;100145.03;1030031;28;20809;-76
2021/12/09 02:11:12;;;;;;;18.77;11.18;;;;;;;-0.76;100.00;100140.81;1033415;28;20881;-75
2021/12/09 02:11:44;;;;;;;18.00;10.57;;;;;;;-0.74;100.00;100139.69;1032974;28;20472;-77
2021/12/09 02:12:16;;;;;;;23.25;10.80;;;;;;;-0.74;100.00;100144.09;1037139;28;20476;-77
2021/12/09 02:12:49;;;;;;;20.75;10.50;;;;;;;-0.72;100.00;100148.19;1040237;28;20450;-78
2021/12/09 02:13:20;;;;;;;17.50;11.13;;;;;;;-0.70;100.00;100145.41;1040250;28;20860;-77
2021/12/09 02:13:56;;;;;;;16.48;11.27;;;;;;;-0.59;100.00;100142.47;1036185;28;20461;-77
2021/12/09 02:14:27;;;;;;;22.42;11.57;;;;;;;-0.56;100.00;100141.31;1029992;28;20462;-77
2021/12/09 02:15:00;;;;;;;19.40;10.70;;;;;;;-0.60;100.00;100140.84;1027867;28;20552;-78
2021/12/09 02:15:35;;;;;;;24.33;11.82;;;;;;;-0.57;100.00;100148.34;1032291;28;20465;-77
2021/12/09 02:16:08;;;;;;;15.88;11.82;;;;;;;-0.53;100.00;100148.88;1037866;28;20573;-77
2021/12/09 02:16:40;;;;;;;22.00;12.05;;;;;;;-0.50;100.00;100149.38;1036052;28;21113;-77
2021/12/09 02:17:12;;;;;;;20.00;10.70;;;;;;;-0.51;100.00;100150.34;1036138;28;20479;-77
2021/12/09 02:17:43;;;;;;;22.25;11.93;;;;;;;-0.46;100.00;100148.06;1036664;28;20448;-77
2021/12/09 02:18:15;;;;;;;21.10;13.15;;;;;;;-0.45;100.00;100141.03;1036537;28;20488;-77
2021/12/09 02:18:47;;;;;;;23.10;12.93;;;;;;;-0.52;100.00;100143.47;1035961;28;20804;-78
2021/12/09 02:19:25;;;;;;;23.83;12.30;;;;;;;-0.55;100.00;100141.16;1032730;28;20445;-76
2021/12/09 02:19:59;;;;;;;24.25;13.02;;;;;;;-0.59;100.00;100154.72;1028421;28;20828;-77
2021/12/09 02:20:33;;;;;;;26.75;12.10;;;;;;;-0.60;100.00;100153.09;1030041;28;20438;-77
2021/12/09 02:21:08;;;;;;;19.75;12.10;;;;;;;-0.62;100.00;100150.63;1031727;28;21084;-76
2021/12/09 02:21:42;;;;;;;22.35;12.38;;;;;;;-0.53;100.00;100151.50;1035316;28;20449;-75
2021/12/09 02:22:15;;;;;;;16.25;12.23;;;;;;;-0.57;100.00;100145.75;1039960;28;20479;-75
2021/12/09 02:22:48;;;;;;;19.17;11.70;;;;;;;-0.64;100.00;100149.97;1040627;28;20450;-74
2021/12/09 02:23:19;;;;;;;21.75;11.77;;;;;;;-0.64;100.00;100155.22;1040183;28;20458;-75
2021/12/09 02:23:54;;;;;;;24.48;12.88;;;;;;;-0.63;100.00;100151.63;1036960;28;20834;-76
2021/12/09 02:24:26;;;;;;;19.88;11.45;;;;;;;-0.65;100.00;100153.56;1035162;28;20461;-76
2021/12/09 02:24:58;;;;;;;23.30;11.50;;;;;;;-0.64;100.00;100157.84;1033210;28;20442;-75
2021/12/09 02:25:29;;;;;;;16.42;11.25;;;;;;;-0.60;100.00;100145.25;1040007;28;20468;-75
2021/12/09 02:26:01;;;;;;;19.52;11.52;;;;;;;-0.49;100.00;100151.00;1038221;28;20432;-76
2021/12/09 02:26:38;;;;;;;25.55;12.30;;;;;;;-0.52;100.00;100153.94;1036075;28;20487;-75
2021/12/09 02:27:10;;;;;;;23.48;11.82;;;;;;;-0.47;100.00;100153.47;1034001;28;20437;-75
2021/12/09 02:27:43;;;;;;;17.42;12.10;;;;;;;-0.55;100.00;100151.63;1037067;28;20527;-78
2021/12/09 02:28:15;;;;;;;21.52;11.35;;;;;;;-0.50;100.00;100151.97;1036068;28;20464;-77
2021/12/09 02:28:48;;;;;;;20.40;12.75;;;;;;;-0.44;100.00;100151.34;1038262;28;20405;-77